Time;durP1;ratioP1;P1;durP2;ratioP2;P2;SDS_P1;SDS_P2;PMS_P1;PMS_P2;Temp;Humidity;BMP_temperature;BMP_pressure;BME280_temperature;BME280_humidity;BME280_pressure;Samples;Min_cycle;Max_cycle;Signal;HPM_P1;HPM_P2
2023/12/16 00:01:41;;;;;;;13.30;5.80;;;;;;;4.62;86.11;102563.99;104894;1256;61588;-62
2023/12/16 00:04:08;;;;;;;5.80;4.90;;;;;;;4.63;86.26;102570.48;104857;1256;138687;-61
2023/12/16 00:06:35;;;;;;;9.00;4.50;;;;;;;4.62;86.23;102578.04;104989;1260;67182;-62
2023/12/16 00:09:02;;;;;;;7.70;4.50;;;;;;;4.60;86.19;102588.00;105021;1258;138309;-62
2023/12/16 00:11:28;;;;;;;9.50;5.20;;;;;;;4.61;86.44;102590.14;104997;1261;61367;-62
2023/12/16 00:13:55;;;;;;;9.80;4.60;;;;;;;4.64;86.59;102588.30;105003;1256;61317;-59
2023/12/16 00:16:23;;;;;;;8.30;3.90;;;;;;;4.67;86.70;102586.48;104703;1259;140367;-59
2023/12/16 00:18:52;;;;;;;12.60;4.50;;;;;;;4.71;86.73;102580.31;104840;1256;67558;-63
2023/12/16 00:21:19;;;;;;;9.70;5.00;;;;;;;4.71;86.60;102574.79;104910;1260;139102;-63
2023/12/16 00:23:45;;;;;;;8.90;3.90;;;;;;;4.71;86.60;102580.44;104899;1256;61469;-63
2023/12/16 00:26:12;;;;;;;7.80;3.90;;;;;;;4.73;86.81;102588.63;104911;1256;61256;-62
2023/12/16 00:28:39;;;;;;;7.00;3.20;;;;;;;4.78;86.83;102587.98;104773;1256;138036;-63
2023/12/16 00:31:06;;;;;;;11.30;4.30;;;;;;;4.86;87.08;102591.05;104806;1255;64712;-62
2023/12/16 00:33:33;;;;;;;7.20;3.70;;;;;;;4.91;87.02;102595.95;105406;1255;138108;-62
2023/12/16 00:35:59;;;;;;;8.40;4.10;;;;;;;4.90;86.60;102599.34;104886;1256;61345;-62
2023/12/16 00:38:26;;;;;;;9.30;3.80;;;;;;;4.88;86.66;102606.31;104990;1259;61243;-62
2023/12/16 00:40:53;;;;;;;10.30;3.60;;;;;;;4.89;86.73;102606.38;104838;1255;137877;-62
2023/12/16 00:43:19;;;;;;;10.20;3.90;;;;;;;4.91;86.80;102607.09;104913;1256;66490;-62
2023/12/16 00:45:46;;;;;;;10.50;3.40;;;;;;;4.97;87.01;102600.39;104681;1259;138538;-62
2023/12/16 00:48:13;;;;;;;13.30;4.20;;;;;;;5.00;86.89;102599.30;104853;1256;61189;-58
2023/12/16 00:50:40;;;;;;;7.80;3.40;;;;;;;5.03;86.79;102610.30;104850;1256;139126;-59
2023/12/16 00:53:06;;;;;;;9.10;3.70;;;;;;;5.02;86.79;102612.49;104935;1256;75749;-61
2023/12/16 00:55:33;;;;;;;6.20;3.40;;;;;;;5.02;86.84;102605.31;105031;1259;64893;-63
2023/12/16 00:57:59;;;;;;;15.00;4.20;;;;;;;5.03;86.90;102608.91;104778;1260;138488;-63
2023/12/16 01:00:26;;;;;;;9.70;3.50;;;;;;;5.09;87.07;102614.16;104864;1259;61382;-63
2023/12/16 01:02:53;;;;;;;9.20;3.50;;;;;;;5.15;87.13;102619.88;104791;1261;139035;-63
2023/12/16 01:05:20;;;;;;;10.20;3.90;;;;;;;5.21;87.14;102619.66;104998;1261;75555;-62
2023/12/16 01:07:46;;;;;;;10.70;3.90;;;;;;;5.23;86.91;102619.11;104731;1260;64987;-62
2023/12/16 01:10:13;;;;;;;10.50;3.80;;;;;;;5.23;86.86;102613.88;104764;1260;138713;-63
2023/12/16 01:12:40;;;;;;;7.80;3.70;;;;;;;5.25;86.85;102614.77;104813;1260;61147;-63
2023/12/16 01:15:08;;;;;;;9.30;3.20;;;;;;;5.30;86.92;102615.64;104790;1256;138588;-63
2023/12/16 01:17:35;;;;;;;5.80;2.70;;;;;;;5.37;87.07;102616.16;104818;1259;73830;-63
2023/12/16 01:20:01;;;;;;;9.40;2.70;;;;;;;5.43;87.06;102616.63;104897;1259;67367;-63
2023/12/16 01:22:28;;;;;;;7.70;3.00;;;;;;;5.48;86.96;102614.91;104697;1259;138352;-59
2023/12/16 01:24:55;;;;;;;8.20;2.60;;;;;;;5.50;86.80;102618.23;104946;1256;61290;-59
2023/12/16 01:27:22;;;;;;;6.40;2.50;;;;;;;5.52;86.69;102614.16;104823;1256;138568;-59
2023/12/16 01:29:49;;;;;;;6.90;3.40;;;;;;;5.54;86.69;102610.87;104794;1256;75902;-59
2023/12/16 01:32:15;;;;;;;3.90;2.70;;;;;;;5.57;86.59;102617.70;104824;1255;65290;-59
2023/12/16 01:34:42;;;;;;;6.60;3.00;;;;;;;5.59;86.53;102618.91;104618;1260;138241;-58
2023/12/16 01:37:09;;;;;;;7.00;3.50;;;;;;;5.61;86.58;102612.95;104660;1261;61343;-60
2023/12/16 01:39:35;;;;;;;8.60;2.70;;;;;;;5.62;86.36;102611.25;104613;1260;138269;-60
2023/12/16 01:42:02;;;;;;;7.30;2.80;;;;;;;5.60;86.25;102613.04;104732;1260;75357;-60
2023/12/16 01:44:29;;;;;;;5.90;2.70;;;;;;;5.57;86.06;102609.69;109036;1256;67162;-58
2023/12/16 01:46:56;;;;;;;6.60;2.60;;;;;;;5.52;85.90;102601.60;106463;1260;138223;-64
2023/12/16 01:49:22;;;;;;;8.40;2.80;;;;;;;5.43;85.78;102592.48;104754;1257;61346;-63
2023/12/16 01:51:49;;;;;;;6.70;2.90;;;;;;;5.35;85.75;102592.67;104488;1256;139150;-64
2023/12/16 01:54:16;;;;;;;5.70;2.70;;;;;;;5.29;85.76;102598.14;104656;1261;75094;-63
2023/12/16 01:56:42;;;;;;;8.10;3.10;;;;;;;5.25;85.96;102601.17;104776;1260;138918;-63
2023/12/16 01:59:09;;;;;;;9.20;3.20;;;;;;;5.20;86.00;102605.19;105138;1261;73030;-63
2023/12/16 02:01:36;;;;;;;7.30;3.20;;;;;;;5.16;85.98;102612.15;104704;1257;61330;-64
2023/12/16 02:04:02;;;;;;;8.20;3.10;;;;;;;5.13;86.13;102611.90;104603;1256;138377;-63
2023/12/16 02:06:29;;;;;;;13.80;3.80;;;;;;;5.10;86.25;102616.91;104672;1261;75575;-61
2023/12/16 02:08:56;;;;;;;16.30;4.40;;;;;;;5.11;86.38;102620.96;104521;1256;138819;-59
2023/12/16 02:11:22;;;;;;;14.80;4.10;;;;;;;5.15;86.76;102626.38;104579;1263;72583;-58
2023/12/16 02:13:50;;;;;;;15.60;4.10;;;;;;;5.20;86.68;102624.95;104926;1261;61259;-58
2023/12/16 02:16:17;;;;;;;12.70;4.40;;;;;;;5.26;86.87;102631.20;104795;1256;139694;-61
2023/12/16 02:18:43;;;;;;;13.30;5.10;;;;;;;5.35;86.86;102630.69;104614;1261;74336;-59
2023/12/16 02:21:10;;;;;;;14.20;4.20;;;;;;;5.45;87.09;102628.45;104519;1261;139136;-59
2023/12/16 02:23:38;;;;;;;11.80;3.40;;;;;;;5.54;87.13;102626.47;104718;1259;73772;-59
2023/12/16 02:26:05;;;;;;;16.80;4.00;;;;;;;5.60;86.95;102618.13;108845;1255;59285;-60
2023/12/16 02:28:32;;;;;;;10.30;3.40;;;;;;;5.66;86.89;102614.50;108916;1256;139215;-60
2023/12/16 02:30:58;;;;;;;18.40;3.90;;;;;;;5.71;86.76;102620.66;107715;1256;74425;-60
2023/12/16 02:33:25;;;;;;;14.90;3.70;;;;;;;5.75;86.66;102622.15;104532;1261;138921;-59
2023/12/16 02:35:52;;;;;;;14.10;4.10;;;;;;;5.75;86.46;102624.07;104724;1260;73405;-60
2023/12/16 02:38:18;;;;;;;11.70;4.50;;;;;;;5.78;86.38;102625.65;104730;1256;61360;-61
2023/12/16 02:40:45;;;;;;;15.00;4.40;;;;;;;5.77;86.28;102628.58;104802;1258;138905;-59
2023/12/16 02:43:12;;;;;;;18.60;5.30;;;;;;;5.76;86.29;102630.27;104804;1257;75960;-59
2023/12/16 02:45:38;;;;;;;15.80;4.70;;;;;;;5.77;86.35;102634.70;104807;1256;138349;-59
2023/12/16 02:48:05;;;;;;;14.00;4.20;;;;;;;5.80;86.45;102635.92;104513;1260;72479;-60
2023/12/16 02:50:32;;;;;;;14.50;3.90;;;;;;;5.85;86.55;102632.14;104714;1256;61303;-59
2023/12/16 02:52:59;;;;;;;9.50;3.30;;;;;;;5.90;86.57;102629.01;104612;1256;138842;-59
2023/12/16 02:55:26;;;;;;;11.50;3.10;;;;;;;5.95;86.57;102629.55;108788;1256;75629;-60
2023/12/16 02:57:53;;;;;;;8.50;3.10;;;;;;;5.99;86.54;102630.63;106415;1258;138593;-60
2023/12/16 03:00:19;;;;;;;9.70;3.00;;;;;;;6.03;86.38;102637.17;104675;1256;72085;-58
2023/12/16 03:02:46;;;;;;;9.80;3.30;;;;;;;6.07;86.42;102638.35;104405;1256;139052;-59
2023/12/16 03:05:13;;;;;;;11.00;2.90;;;;;;;6.12;86.36;102639.72;104662;1256;61313;-62
2023/12/16 03:07:40;;;;;;;9.40;3.30;;;;;;;6.15;86.22;102631.75;104798;1256;73597;-62
2023/12/16 03:10:07;;;;;;;9.50;3.10;;;;;;;6.18;86.27;102630.91;104755;1256;138569;-63
2023/12/16 03:12:33;;;;;;;13.60;3.30;;;;;;;6.19;86.12;102630.31;104903;1257;73072;-63
2023/12/16 03:15:00;;;;;;;10.90;3.30;;;;;;;6.21;86.09;102625.19;104741;1256;138813;-62
2023/12/16 03:17:27;;;;;;;11.50;3.00;;;;;;;6.20;85.99;102624.65;104697;1254;61252;-64
2023/12/16 03:19:55;;;;;;;10.60;2.80;;;;;;;6.19;85.94;102618.82;104893;1256;73837;-63
2023/12/16 03:22:22;;;;;;;13.80;3.00;;;;;;;6.21;85.93;102626.44;104732;1260;138614;-59
2023/12/16 03:24:48;;;;;;;11.40;3.10;;;;;;;6.21;85.96;102632.04;104894;1256;73173;-60
2023/12/16 03:27:15;;;;;;;14.70;3.20;;;;;;;6.22;85.92;102630.88;104797;1259;139688;-59
2023/12/16 03:29:42;;;;;;;15.70;3.20;;;;;;;6.24;85.94;102630.13;104768;1261;61457;-60
2023/12/16 03:32:08;;;;;;;11.00;3.20;;;;;;;6.26;85.87;102630.27;104625;1261;74021;-59
2023/12/16 03:34:35;;;;;;;11.00;2.80;;;;;;;6.27;85.83;102626.51;104596;1256;138453;-59
2023/12/16 03:37:02;;;;;;;11.90;3.10;;;;;;;6.27;85.66;102617.62;104826;1257;71758;-60
2023/12/16 03:39:29;;;;;;;12.60;3.10;;;;;;;6.27;85.66;102623.21;104907;1259;139207;-59
2023/12/16 03:41:55;;;;;;;15.20;3.10;;;;;;;6.27;85.55;102625.80;104868;1261;60386;-59
2023/12/16 03:44:22;;;;;;;11.10;2.70;;;;;;;6.27;85.58;102631.08;104780;1257;74298;-60
2023/12/16 03:46:49;;;;;;;13.20;3.60;;;;;;;6.28;85.56;102633.57;104551;1258;139229;-58
2023/12/16 03:49:15;;;;;;;14.70;3.00;;;;;;;6.29;85.54;102637.64;103813;1256;71660;-60
2023/12/16 03:51:42;;;;;;;13.30;2.80;;;;;;;6.31;85.57;102640.60;103989;1256;139033;-58
2023/12/16 03:54:09;;;;;;;11.80;3.20;;;;;;;6.33;85.55;102639.87;104637;1257;61386;-59
2023/12/16 03:56:36;;;;;;;10.70;2.90;;;;;;;6.36;85.40;102645.12;109057;1254;75703;-59
2023/12/16 03:59:03;;;;;;;14.80;3.90;;;;;;;6.36;85.31;102651.23;105173;1260;138219;-60
2023/12/16 04:01:29;;;;;;;14.60;3.50;;;;;;;6.37;85.30;102646.63;104831;1256;73269;-59
2023/12/16 04:03:56;;;;;;;10.50;3.00;;;;;;;6.38;85.22;102645.45;104745;1260;138824;-60
2023/12/16 04:06:23;;;;;;;15.00;3.50;;;;;;;6.38;85.21;102634.86;104674;1256;61138;-60
2023/12/16 04:08:49;;;;;;;12.60;3.50;;;;;;;6.39;85.16;102628.09;104610;1256;138977;-59
2023/12/16 04:11:16;;;;;;;19.00;3.80;;;;;;;6.39;85.15;102625.47;104748;1256;66611;-63
2023/12/16 04:13:42;;;;;;;10.00;3.60;;;;;;;6.38;85.08;102627.85;105092;1261;73136;-63
2023/12/16 04:16:09;;;;;;;12.60;2.90;;;;;;;6.38;84.99;102630.46;104959;1260;139429;-62
2023/12/16 04:18:36;;;;;;;16.20;3.30;;;;;;;6.38;84.91;102632.88;104825;1260;61618;-62
2023/12/16 04:21:03;;;;;;;12.00;3.60;;;;;;;6.37;84.91;102635.83;104676;1260;139048;-59
2023/12/16 04:23:30;;;;;;;13.50;3.60;;;;;;;6.38;84.91;102642.67;104793;1256;65101;-62
2023/12/16 04:25:57;;;;;;;13.70;3.30;;;;;;;6.38;84.94;102652.08;108862;1256;71770;-62
2023/12/16 04:28:23;;;;;;;17.00;3.20;;;;;;;6.37;84.78;102658.63;104876;1256;139147;-63
2023/12/16 04:30:50;;;;;;;17.60;3.90;;;;;;;6.35;84.79;102653.46;105014;1261;61247;-63
2023/12/16 04:33:16;;;;;;;17.50;3.30;;;;;;;6.35;84.72;102651.71;104639;1260;138569;-59
2023/12/16 04:35:43;;;;;;;15.90;4.00;;;;;;;6.34;84.71;102645.84;104796;1260;65483;-59
2023/12/16 04:38:10;;;;;;;12.50;3.00;;;;;;;6.33;84.73;102644.41;104670;1258;72785;-60
2023/12/16 04:40:37;;;;;;;15.20;4.00;;;;;;;6.33;84.65;102644.71;104596;1261;138466;-60
2023/12/16 04:43:03;;;;;;;15.70;3.10;;;;;;;6.32;84.64;102645.75;105028;1260;61258;-60
2023/12/16 04:45:30;;;;;;;15.50;4.10;;;;;;;6.34;84.61;102654.55;104764;1256;138919;-59
2023/12/16 04:47:57;;;;;;;14.10;3.40;;;;;;;6.33;84.56;102647.38;104902;1255;65562;-58
2023/12/16 04:50:23;;;;;;;16.90;3.60;;;;;;;6.31;84.39;102647.05;104778;1260;72147;-62
2023/12/16 04:52:50;;;;;;;12.40;3.40;;;;;;;6.31;84.45;102647.05;104708;1260;138517;-62
2023/12/16 04:55:17;;;;;;;11.60;3.10;;;;;;;6.32;84.54;102644.28;104722;1261;61372;-64
2023/12/16 04:57:43;;;;;;;17.40;3.80;;;;;;;6.34;84.63;102647.59;104739;1256;138570;-62
2023/12/16 05:00:11;;;;;;;13.60;3.40;;;;;;;6.36;84.57;102651.58;104742;1261;66620;-63
2023/12/16 05:02:37;;;;;;;16.10;3.70;;;;;;;6.37;84.59;102654.66;108208;1256;71787;-63
2023/12/16 05:05:05;;;;;;;12.50;3.30;;;;;;;6.38;84.48;102659.73;104750;1258;61279;-63
2023/12/16 05:07:32;;;;;;;14.90;3.80;;;;;;;6.39;84.38;102663.15;104759;1256;61257;-63
2023/12/16 05:09:59;;;;;;;14.70;3.70;;;;;;;6.40;84.45;102665.88;104699;1256;138599;-62
2023/12/16 05:12:26;;;;;;;14.00;3.90;;;;;;;6.41;84.30;102667.14;105000;1261;67034;-63
2023/12/16 05:14:52;;;;;;;18.30;3.40;;;;;;;6.41;84.33;102667.29;104522;1260;145223;-63
2023/12/16 05:17:19;;;;;;;12.80;3.40;;;;;;;6.40;84.29;102672.29;104688;1261;61260;-64
2023/12/16 05:19:46;;;;;;;12.80;3.90;;;;;;;6.40;84.29;102667.08;105022;1257;62686;-64
2023/12/16 05:22:13;;;;;;;17.40;3.40;;;;;;;6.40;84.24;102668.80;104591;1260;139197;-62
2023/12/16 05:24:39;;;;;;;12.60;3.60;;;;;;;6.41;84.32;102667.48;104736;1256;65485;-63
2023/12/16 05:27:07;;;;;;;15.40;3.70;;;;;;;6.42;84.20;102664.23;104755;1256;138573;-63
2023/12/16 05:29:34;;;;;;;8.50;2.80;;;;;;;6.43;84.33;102661.02;104860;1265;61128;-63
2023/12/16 05:32:01;;;;;;;12.00;3.60;;;;;;;6.46;84.33;102651.96;104769;1261;61344;-63
2023/12/16 05:34:27;;;;;;;11.80;3.50;;;;;;;6.47;84.20;102659.17;104745;1260;138471;-63
2023/12/16 05:36:54;;;;;;;13.70;3.70;;;;;;;6.49;84.19;102661.04;104857;1261;67267;-64
2023/12/16 05:39:21;;;;;;;18.20;4.30;;;;;;;6.51;84.25;102668.51;104929;1260;138618;-63
2023/12/16 05:41:49;;;;;;;15.60;3.80;;;;;;;6.51;84.20;102672.02;104962;1260;61142;-64
2023/12/16 05:44:16;;;;;;;15.00;4.50;;;;;;;6.52;84.19;102676.27;104849;1258;61389;-64
2023/12/16 05:46:42;;;;;;;16.40;4.00;;;;;;;6.52;84.13;102678.90;104843;1257;138509;-64
2023/12/16 05:49:09;;;;;;;14.30;4.10;;;;;;;6.53;84.07;102674.95;104835;1256;64818;-63
2023/12/16 05:51:39;;;;;;;16.00;4.00;;;;;;;6.54;84.16;102678.16;104938;1260;139212;-63
2023/12/16 05:54:07;;;;;;;14.40;3.30;;;;;;;6.55;84.08;102674.55;104829;1257;61277;-63
2023/12/16 05:56:34;;;;;;;16.30;3.50;;;;;;;6.56;84.03;102676.95;105789;1259;61353;-63
2023/12/16 05:59:01;;;;;;;17.20;3.80;;;;;;;6.57;84.05;102677.20;104918;1261;138401;-63
2023/12/16 06:01:28;;;;;;;12.80;3.70;;;;;;;6.57;83.99;102678.07;105119;1259;65959;-64
2023/12/16 06:03:55;;;;;;;14.60;3.80;;;;;;;6.58;83.98;102666.41;104950;1259;138571;-64
2023/12/16 06:06:22;;;;;;;10.70;3.50;;;;;;;6.58;84.03;102663.83;104881;1261;62319;-65
2023/12/16 06:08:50;;;;;;;15.20;4.00;;;;;;;6.59;84.00;102659.38;104688;1260;139808;-65
2023/12/16 06:11:16;;;;;;;12.90;3.40;;;;;;;6.59;83.93;102659.02;105327;1260;74293;-65
2023/12/16 06:13:43;;;;;;;18.50;4.50;;;;;;;6.59;83.87;102658.28;104937;1256;65267;-64
2023/12/16 06:16:13;;;;;;;14.80;3.30;;;;;;;6.58;83.83;102659.99;104886;1259;139189;-65
2023/12/16 06:18:40;;;;;;;15.10;3.90;;;;;;;6.58;83.83;102662.11;104789;1263;61195;-66
2023/12/16 06:21:06;;;;;;;13.50;3.80;;;;;;;6.58;83.74;102654.41;104549;1266;139019;-63
2023/12/16 06:23:33;;;;;;;10.40;2.80;;;;;;;6.58;83.75;102648.30;104643;1265;73964;-63
2023/12/16 06:26:00;;;;;;;11.80;3.50;;;;;;;6.57;83.54;102647.70;104714;1259;64655;-64
2023/12/16 06:28:27;;;;;;;10.00;3.10;;;;;;;6.55;83.52;102641.83;105088;1259;139054;-65
2023/12/16 06:30:54;;;;;;;18.10;3.40;;;;;;;6.55;83.51;102639.71;104704;1261;61387;-64
2023/12/16 06:33:22;;;;;;;12.20;3.40;;;;;;;6.55;83.41;102639.54;104680;1269;138957;-64
2023/12/16 06:35:49;;;;;;;11.20;2.90;;;;;;;6.51;83.32;102627.40;104798;1258;75646;-64
2023/12/16 06:38:16;;;;;;;9.90;3.30;;;;;;;6.43;83.10;102627.31;104769;1260;65497;-60
2023/12/16 06:40:42;;;;;;;13.60;3.30;;;;;;;6.37;83.24;102623.80;104658;1261;137717;-60
2023/12/16 06:43:09;;;;;;;15.90;3.40;;;;;;;6.34;83.22;102633.83;104901;1269;61327;-61
2023/12/16 06:45:38;;;;;;;15.80;3.70;;;;;;;6.25;83.03;102632.31;104872;1261;138452;-59
2023/12/16 06:48:05;;;;;;;13.90;3.30;;;;;;;6.13;82.98;102640.33;108867;1256;75022;-59
2023/12/16 06:50:31;;;;;;;15.40;3.30;;;;;;;6.00;82.98;102646.71;108916;1257;65924;-59
2023/12/16 06:52:58;;;;;;;15.60;3.80;;;;;;;5.89;82.97;102648.77;108817;1259;138270;-60
2023/12/16 06:55:25;;;;;;;13.90;3.40;;;;;;;5.77;83.01;102647.23;108271;1260;61349;-59
2023/12/16 06:57:51;;;;;;;14.80;3.50;;;;;;;5.67;83.08;102649.83;104985;1262;138352;-58
2023/12/16 07:00:18;;;;;;;13.30;4.10;;;;;;;5.59;83.19;102652.31;104759;1257;75619;-59
2023/12/16 07:02:45;;;;;;;15.90;3.60;;;;;;;5.50;83.24;102650.60;108805;1256;138630;-59
2023/12/16 07:05:12;;;;;;;18.00;4.60;;;;;;;5.41;83.32;102652.89;108855;1257;72029;-59
2023/12/16 07:07:39;;;;;;;17.40;4.10;;;;;;;5.33;83.51;102654.89;108885;1256;58997;-59
2023/12/16 07:10:06;;;;;;;15.60;3.50;;;;;;;5.27;83.65;102656.49;108823;1255;138976;-60
2023/12/16 07:12:33;;;;;;;13.30;3.40;;;;;;;5.22;83.74;102657.85;108984;1256;74978;-59
2023/12/16 07:14:59;;;;;;;11.50;3.60;;;;;;;5.17;83.82;102655.42;108872;1259;138373;-60
2023/12/16 07:17:26;;;;;;;14.50;3.80;;;;;;;5.14;83.99;102657.26;108995;1256;73885;-64
2023/12/16 07:19:53;;;;;;;19.00;4.70;;;;;;;5.17;84.37;102663.77;105786;1257;61430;-64
2023/12/16 07:22:19;;;;;;;16.40;4.40;;;;;;;5.28;84.81;102665.46;104911;1256;138278;-63
2023/12/16 07:24:46;;;;;;;22.60;4.60;;;;;;;5.41;85.00;102672.06;105056;1260;75820;-63
2023/12/16 07:27:13;;;;;;;17.40;3.80;;;;;;;5.55;85.19;102678.34;104962;1269;138718;-63
2023/12/16 07:29:39;;;;;;;12.80;4.00;;;;;;;5.66;85.19;102672.20;104956;1262;73580;-63
2023/12/16 07:32:06;;;;;;;15.00;3.40;;;;;;;5.75;85.17;102671.61;104990;1259;61301;-58
2023/12/16 07:34:33;;;;;;;15.80;3.90;;;;;;;5.80;85.01;102671.52;104832;1258;138772;-62
2023/12/16 07:37:00;;;;;;;16.50;4.10;;;;;;;5.87;85.01;102673.56;104893;1262;75273;-59
2023/12/16 07:39:27;;;;;;;15.30;3.90;;;;;;;5.97;85.16;102674.20;104818;1260;138642;-60
2023/12/16 07:41:53;;;;;;;15.30;4.00;;;;;;;6.07;85.21;102674.42;105098;1260;71927;-59
2023/12/16 07:44:20;;;;;;;16.20;4.10;;;;;;;6.14;85.09;102671.45;104962;1257;61355;-59
2023/12/16 07:46:47;;;;;;;13.90;4.00;;;;;;;6.19;85.01;102668.15;104788;1269;138685;-59
2023/12/16 07:49:14;;;;;;;16.30;3.90;;;;;;;6.27;85.10;102664.20;104959;1258;74674;-60
2023/12/16 07:51:42;;;;;;;16.30;4.30;;;;;;;6.37;85.04;102659.68;104823;1261;139129;-59
2023/12/16 07:54:08;;;;;;;13.10;4.40;;;;;;;6.41;84.84;102654.75;104804;1268;73199;-58
2023/12/16 07:56:35;;;;;;;23.50;8.20;;;;;;;6.41;84.57;102653.86;104741;1261;60862;-59
2023/12/16 07:59:02;;;;;;;20.60;8.20;;;;;;;6.40;84.45;102649.40;104714;1257;138459;-65
2023/12/16 08:01:28;;;;;;;22.60;8.40;;;;;;;6.37;84.40;102650.63;104845;1257;75003;-59
2023/12/16 08:03:55;;;;;;;17.40;6.30;;;;;;;6.38;84.49;102649.98;104680;1260;138453;-60
2023/12/16 08:06:22;;;;;;;18.50;6.30;;;;;;;6.45;84.71;102664.27;104619;1260;73574;-60
2023/12/16 08:08:49;;;;;;;25.60;8.00;;;;;;;6.52;84.72;102669.33;104516;1262;139101;-63
2023/12/16 08:11:15;;;;;;;19.50;6.60;;;;;;;6.60;84.75;102673.02;104646;1260;61241;-64
2023/12/16 08:13:42;;;;;;;19.10;5.70;;;;;;;6.66;84.77;102668.58;104623;1261;75151;-63
2023/12/16 08:16:11;;;;;;;15.50;5.70;;;;;;;6.74;84.81;102666.70;104679;1264;139410;-62
2023/12/16 08:18:37;;;;;;;17.50;6.10;;;;;;;6.81;84.75;102669.45;108760;1257;73739;-62
2023/12/16 08:21:04;;;;;;;14.90;5.00;;;;;;;6.89;84.71;102671.02;108675;1256;139179;-62
2023/12/16 08:23:31;;;;;;;12.70;4.50;;;;;;;6.98;84.76;102673.31;108801;1259;59114;-62
2023/12/16 08:25:58;;;;;;;11.80;4.00;;;;;;;7.10;84.73;102678.81;108789;1257;75907;-62
2023/12/16 08:28:24;;;;;;;17.00;4.60;;;;;;;7.17;84.58;102674.77;108698;1255;138928;-63
2023/12/16 08:30:52;;;;;;;15.20;5.10;;;;;;;7.25;84.48;102673.60;108770;1255;73001;-59
2023/12/16 08:33:18;;;;;;;13.90;4.60;;;;;;;7.33;84.33;102670.46;108648;1256;138712;-59
2023/12/16 08:35:45;;;;;;;20.20;6.50;;;;;;;7.41;84.23;102666.85;108801;1259;59446;-59
2023/12/16 08:38:12;;;;;;;27.50;10.40;;;;;;;7.50;84.21;102672.31;108795;1255;73282;-58
2023/12/16 08:40:38;;;;;;;17.90;7.80;;;;;;;7.57;84.04;102673.54;108684;1255;138396;-60
2023/12/16 08:43:05;;;;;;;14.70;6.80;;;;;;;7.63;83.96;102674.61;108783;1255;72820;-59
2023/12/16 08:45:32;;;;;;;66.30;32.70;;;;;;;7.70;83.81;102671.04;108682;1255;138447;-63
2023/12/16 08:47:58;;;;;;;65.10;29.70;;;;;;;7.78;83.81;102679.08;108763;1257;60163;-63
2023/12/16 08:50:25;;;;;;;29.20;14.00;;;;;;;7.84;83.71;102681.05;108786;1257;74380;-62
2023/12/16 08:52:52;;;;;;;13.70;5.60;;;;;;;7.92;83.69;102678.62;108685;1257;140154;-62
2023/12/16 08:55:19;;;;;;;8.70;3.90;;;;;;;8.04;83.69;102684.32;108695;1256;72611;-62
2023/12/16 08:57:46;;;;;;;7.40;3.20;;;;;;;8.16;83.70;102686.20;108685;1256;138541;-63
2023/12/16 09:00:13;;;;;;;7.80;3.20;;;;;;;8.28;83.50;102682.39;108832;1257;60567;-63
2023/12/16 09:02:39;;;;;;;9.40;3.10;;;;;;;8.38;83.36;102683.59;108720;1255;138788;-59
2023/12/16 09:05:07;;;;;;;7.60;3.20;;;;;;;8.43;83.17;102684.14;108815;1256;64471;-63
2023/12/16 09:07:34;;;;;;;5.50;2.50;;;;;;;8.45;82.88;102684.40;108768;1257;71974;-60
2023/12/16 09:10:00;;;;;;;6.10;2.50;;;;;;;8.47;82.90;102681.60;108648;1257;139900;-64
2023/12/16 09:12:27;;;;;;;6.20;2.70;;;;;;;8.50;82.71;102683.90;108771;1256;60056;-69
2023/12/16 09:14:54;;;;;;;5.70;3.00;;;;;;;8.56;82.70;102687.05;108722;1259;138223;-63
2023/12/16 09:17:21;;;;;;;6.50;2.60;;;;;;;8.60;82.64;102688.88;108779;1256;66039;-61
2023/12/16 09:19:47;;;;;;;8.10;2.80;;;;;;;8.66;82.57;102693.65;108790;1255;72774;-62
2023/12/16 09:22:16;;;;;;;7.70;2.80;;;;;;;8.68;82.51;102691.12;108698;1256;139066;-62
2023/12/16 09:24:43;;;;;;;6.00;3.00;;;;;;;8.70;82.36;102689.16;107611;1257;61291;-62
2023/12/16 09:27:09;;;;;;;4.50;2.60;;;;;;;8.69;82.28;102688.10;104670;1257;138363;-62
2023/12/16 09:29:36;;;;;;;4.90;2.60;;;;;;;8.66;82.07;102689.79;104846;1261;67853;-62
2023/12/16 09:32:05;;;;;;;4.30;2.60;;;;;;;8.60;81.93;102697.95;104883;1257;71385;-62
2023/12/16 09:34:32;;;;;;;6.70;2.60;;;;;;;8.55;81.96;102699.59;108680;1256;138222;-62
2023/12/16 09:36:58;;;;;;;5.70;2.50;;;;;;;8.52;82.03;102702.54;108811;1257;59133;-61
2023/12/16 09:39:25;;;;;;;7.00;3.80;;;;;;;8.49;81.95;102712.83;108828;1257;138161;-61
2023/12/16 09:41:52;;;;;;;11.10;7.20;;;;;;;8.45;82.01;102716.06;108828;1257;66919;-61
2023/12/16 09:44:19;;;;;;;7.00;3.10;;;;;;;8.45;82.05;102711.33;108160;1257;73334;-65
2023/12/16 09:46:46;;;;;;;7.00;3.00;;;;;;;8.46;82.16;102715.41;108365;1257;139949;-66
2023/12/16 09:49:13;;;;;;;6.30;2.60;;;;;;;8.49;82.17;102713.56;108733;1256;59237;-66
2023/12/16 09:51:43;;;;;;;6.40;3.80;;;;;;;8.55;82.14;102714.42;105157;1258;137473;-66
2023/12/16 09:54:10;;;;;;;5.60;2.80;;;;;;;8.57;81.96;102708.44;104705;1260;67472;-65
2023/12/16 09:56:38;;;;;;;4.00;2.60;;;;;;;8.63;82.09;102707.07;104683;1263;73670;-66
2023/12/16 09:59:05;;;;;;;7.30;3.10;;;;;;;8.70;82.03;102698.61;104573;1257;61339;-65
2023/12/16 10:01:32;;;;;;;10.50;3.10;;;;;;;8.74;81.94;102693.27;104522;1257;61261;-66
2023/12/16 10:04:00;;;;;;;8.40;3.80;;;;;;;8.78;81.88;102691.07;104578;1260;139401;-66
2023/12/16 10:06:27;;;;;;;6.70;3.20;;;;;;;8.81;81.80;102688.25;108845;1257;67612;-66
2023/12/16 10:08:53;;;;;;;8.70;3.10;;;;;;;8.78;81.56;102683.73;108722;1256;138392;-66
2023/12/16 10:11:20;;;;;;;6.60;3.70;;;;;;;8.75;81.45;102685.14;108735;1257;59308;-67
2023/12/16 10:14:13;;;;;;;8.50;3.70;;;;;;;8.73;81.40;102689.88;108739;1256;59086;-66
2023/12/16 10:16:40;;;;;;;9.40;3.50;;;;;;;8.71;81.41;102686.45;107866;1257;137444;-67
2023/12/16 10:19:07;;;;;;;6.40;3.00;;;;;;;8.72;81.53;102683.14;104695;1261;65585;-67
2023/12/16 10:21:33;;;;;;;10.70;3.60;;;;;;;8.71;81.39;102680.12;104554;1260;137921;-65
2023/12/16 10:24:01;;;;;;;30.80;21.10;;;;;;;8.65;81.32;102678.70;104620;1255;62599;-65
2023/12/16 10:26:31;;;;;;;14.30;7.40;;;;;;;8.60;81.39;102678.20;104615;1257;61283;-65
2023/12/16 10:29:00;;;;;;;11.90;7.30;;;;;;;8.53;81.32;102678.14;108668;1256;138891;-66
2023/12/16 10:31:27;;;;;;;14.90;6.70;;;;;;;8.48;81.40;102680.23;106800;1257;64703;-65
2023/12/16 10:33:54;;;;;;;9.80;3.70;;;;;;;8.41;81.28;102677.45;104345;1257;139275;-67
2023/12/16 10:36:21;;;;;;;11.80;5.00;;;;;;;8.32;81.36;102680.24;104556;1260;61358;-66
2023/12/16 10:38:48;;;;;;;42.50;23.10;;;;;;;8.28;81.31;102674.73;104258;1257;138770;-65
2023/12/16 10:41:15;;;;;;;17.80;8.60;;;;;;;8.25;81.29;102669.62;104372;1257;287217;-66
2023/12/16 10:43:41;;;;;;;33.80;18.20;;;;;;;8.25;81.37;102662.77;104646;1259;67324;-66
2023/12/16 10:46:08;;;;;;;40.40;21.60;;;;;;;8.27;81.36;102660.45;104688;1260;138107;-66
2023/12/16 10:48:35;;;;;;;20.30;11.00;;;;;;;8.29;81.44;102660.08;104630;1256;61202;-66
2023/12/16 10:51:03;;;;;;;18.30;9.30;;;;;;;8.29;81.30;102655.56;106344;1256;138567;-65
2023/12/16 10:53:40;;;;;;;19.60;8.90;;;;;;;8.29;81.11;102649.45;108809;1256;74884;-68
2023/12/16 10:56:17;;;;;;;14.80;6.90;;;;;;;8.28;81.12;102646.19;104711;1260;67282;-65
2023/12/16 10:58:52;;;;;;;19.60;7.20;;;;;;;8.27;81.01;102637.71;108080;1257;139600;-65
2023/12/16 11:01:18;;;;;;;30.40;14.60;;;;;;;8.28;81.09;102631.34;107207;1257;65546;-68
2023/12/16 11:04:17;;;;;;;40.30;17.60;;;;;;;8.29;81.05;102629.65;104584;1257;138516;-68
2023/12/16 11:07:06;;;;;;;22.20;10.50;;;;;;;8.30;80.92;102629.73;104650;1255;77060;-68
2023/12/16 11:09:33;;;;;;;12.00;5.40;;;;;;;8.29;80.89;102634.20;108574;1256;139022;-64
2023/12/16 11:12:01;;;;;;;35.90;14.70;;;;;;;8.28;80.84;102631.33;108663;1256;72367;-63
2023/12/16 11:14:28;;;;;;;20.20;9.80;;;;;;;8.29;80.79;102628.92;108705;1256;60893;-63
2023/12/16 11:16:58;;;;;;;50.60;26.40;;;;;;;8.32;80.85;102622.48;108681;1256;138154;-63